Time;durP1;ratioP1;P1;durP2;ratioP2;P2;SDS_P1;SDS_P2;PMS_P1;PMS_P2;Temp;Humidity;BMP_temperature;BMP_pressure;BME280_temperature;BME280_humidity;BME280_pressure;Samples;Min_cycle;Max_cycle;Signal;HPM_P1;HPM_P2
2022/01/14 00:01:04;;;;;;;47.10;14.73;;;;;;;-3.19;62.63;94597.16;2071109;69;20144;-72
2022/01/14 00:03:29;;;;;;;33.85;11.30;;;;;;;-3.04;62.47;94586.88;2074730;69;20171;-69
2022/01/14 00:05:55;;;;;;;28.08;10.63;;;;;;;-3.04;62.72;94599.88;2074392;69;20176;-70
2022/01/14 00:08:20;;;;;;;27.95;11.32;;;;;;;-3.08;64.35;94591.81;2074685;69;20160;-73
2022/01/14 00:10:49;;;;;;;23.05;9.20;;;;;;;-2.91;64.01;94586.56;2074514;69;20192;-77
2022/01/14 00:16:04;;;;;;;23.33;9.60;;;;;;;-2.89;62.99;94584.84;2074486;69;20136;-72
2022/01/14 00:18:31;;;;;;;31.27;10.15;;;;;;;-2.86;62.97;94583.91;2074918;69;20132;-75
2022/01/14 00:20:56;;;;;;;25.30;9.98;;;;;;;-3.01;64.00;94583.16;2074621;69;20168;-74
2022/01/14 00:23:30;;;;;;;64.05;24.30;;;;;;;-3.09;63.67;94576.53;2073935;69;20590;-70
2022/01/14 00:32:10;;;;;;;54.92;23.40;;;;;;;-3.00;62.62;94570.16;2073754;69;20258;-73
2022/01/14 00:34:15;;;;;;;57.20;24.65;;;;;;;-3.10;63.15;94573.00;2072157;69;20148;-76
2022/01/14 00:36:41;;;;;;;57.58;22.73;;;;;;;-3.18;62.72;94569.13;2073514;69;20200;-73
2022/01/14 00:39:10;;;;;;;57.22;25.05;;;;;;;-3.32;62.80;94567.88;2074471;69;20143;-69
2022/01/14 00:41:36;;;;;;;63.55;27.02;;;;;;;-3.31;63.72;94571.41;2074092;69;20148;-76
2022/01/14 00:44:10;;;;;;;75.28;29.40;;;;;;;-3.22;62.88;94565.78;2074084;69;20661;-70
2022/01/14 00:46:37;;;;;;;79.43;31.80;;;;;;;-3.23;63.74;94564.28;2074649;69;20202;-68
2022/01/14 00:49:02;;;;;;;72.18;30.65;;;;;;;-3.12;63.39;94558.94;2074282;69;20633;-69
2022/01/14 00:51:28;;;;;;;71.78;30.52;;;;;;;-3.12;63.18;94553.41;2074645;69;20289;-74
2022/01/14 00:53:54;;;;;;;69.63;29.85;;;;;;;-3.13;63.56;94549.16;2074529;69;20151;-68
2022/01/14 00:56:26;;;;;;;58.70;24.25;;;;;;;-2.98;62.69;94543.59;2074669;69;20163;-68
2022/01/14 01:01:38;;;;;;;65.78;27.75;;;;;;;-3.04;63.39;94542.03;2072005;69;20136;-69
2022/01/14 01:04:04;;;;;;;77.88;32.90;;;;;;;-3.19;64.19;94542.03;2074727;69;20139;-69
2022/01/14 01:06:31;;;;;;;74.10;32.78;;;;;;;-3.32;63.79;94532.06;2071217;69;20199;-67
2022/01/14 01:08:57;;;;;;;66.15;31.00;;;;;;;-3.18;63.48;94540.81;2074395;69;20135;-68
2022/01/14 01:11:33;;;;;;;63.78;27.08;;;;;;;-3.05;63.18;94541.25;2074626;69;20150;-68
2022/01/14 01:14:16;;;;;;;72.15;30.98;;;;;;;-3.04;62.16;94539.25;2074560;69;20179;-70
2022/01/14 01:16:42;;;;;;;55.33;23.52;;;;;;;-3.07;62.25;94543.72;2074532;69;20614;-69
2022/01/14 01:19:08;;;;;;;68.93;27.10;;;;;;;-3.09;63.12;94544.22;2074499;69;20167;-71
2022/01/14 01:21:34;;;;;;;65.03;26.98;;;;;;;-3.13;63.83;94551.16;2074268;69;20170;-68
2022/01/14 01:24:00;;;;;;;51.05;21.65;;;;;;;-3.07;62.88;94547.25;2074379;69;20136;-68
2022/01/14 01:26:31;;;;;;;74.90;30.70;;;;;;;-3.25;64.19;94546.69;2074878;69;20154;-71
2022/01/14 01:31:37;;;;;;;71.40;29.83;;;;;;;-3.11;63.32;94548.69;2074967;69;20158;-67
2022/01/14 01:34:13;;;;;;;56.95;24.17;;;;;;;-3.21;65.37;94553.53;2075086;69;20156;-71
2022/01/14 01:36:43;;;;;;;53.05;22.35;;;;;;;-3.10;64.33;94558.47;2075110;69;20250;-76
2022/01/14 01:39:12;;;;;;;54.55;23.90;;;;;;;-3.02;64.01;94550.56;2075031;69;20219;-70
2022/01/14 01:41:41;;;;;;;43.03;18.70;;;;;;;-2.85;63.56;94555.09;2075114;69;20235;-69
2022/01/14 01:44:11;;;;;;;35.80;15.38;;;;;;;-2.92;63.55;94554.75;2068824;69;20151;-76
2022/01/14 01:46:42;;;;;;;48.50;20.70;;;;;;;-3.22;64.78;94548.50;2075101;69;20263;-71
2022/01/14 01:49:09;;;;;;;46.60;20.13;;;;;;;-3.17;63.62;94551.34;2071746;69;20156;-73
2022/01/14 01:51:36;;;;;;;53.97;22.10;;;;;;;-3.20;64.77;94552.31;2075132;69;20299;-73
2022/01/14 01:54:03;;;;;;;59.25;24.60;;;;;;;-3.28;63.96;94551.16;2075077;69;20613;-72
2022/01/14 01:56:29;;;;;;;75.05;29.73;;;;;;;-3.25;64.53;94547.47;2074992;69;20164;-69
2022/01/14 01:58:56;;;;;;;59.20;23.75;;;;;;;-3.27;64.60;94543.66;2074795;69;20162;-75
2022/01/14 02:01:24;;;;;;;48.92;21.25;;;;;;;-3.20;63.71;94541.28;2071620;69;20159;-68
2022/01/14 02:03:52;;;;;;;49.38;20.50;;;;;;;-3.23;63.64;94533.97;2071507;69;20574;-70
2022/01/14 02:06:20;;;;;;;57.97;23.33;;;;;;;-3.18;63.12;94538.03;2074752;69;20164;-69
2022/01/14 02:08:45;;;;;;;51.97;21.80;;;;;;;-3.15;63.69;94537.84;2074903;69;20152;-75
2022/01/14 02:11:11;;;;;;;46.35;19.17;;;;;;;-3.10;62.77;94530.91;2075101;69;20668;-71
2022/01/14 02:13:36;;;;;;;33.60;15.10;;;;;;;-3.05;62.16;94535.75;2074691;69;20238;-70
2022/01/14 02:18:33;;;;;;;27.02;10.55;;;;;;;-3.17;65.81;94536.81;2075182;69;20156;-72
2022/01/14 02:23:52;;;;;;;25.95;11.73;;;;;;;-3.00;63.61;94523.28;2074868;69;20136;-68
2022/01/14 02:26:20;;;;;;;24.67;10.88;;;;;;;-3.05;64.55;94521.22;2074925;69;20160;-69
2022/01/14 02:28:50;;;;;;;27.65;11.30;;;;;;;-3.11;64.59;94518.38;2075092;69;20614;-74
2022/01/14 02:31:18;;;;;;;23.25;9.70;;;;;;;-3.04;64.90;94519.97;2075024;69;20577;-73
2022/01/14 02:33:44;;;;;;;21.77;9.23;;;;;;;-3.14;64.02;94514.56;2071421;69;20230;-68
2022/01/14 02:36:10;;;;;;;23.67;9.38;;;;;;;-3.07;63.96;94519.69;2074825;69;20607;-71
2022/01/14 02:38:36;;;;;;;18.38;8.60;;;;;;;-3.11;63.70;94527.41;2074640;69;20233;-68
2022/01/14 02:41:02;;;;;;;16.70;7.57;;;;;;;-3.07;63.97;94518.91;2071468;69;20180;-69
2022/01/14 02:43:28;;;;;;;13.55;6.18;;;;;;;-3.02;63.56;94515.50;2075073;69;20231;-73
2022/01/14 02:45:56;;;;;;;12.80;5.68;;;;;;;-2.91;63.43;94507.41;2074727;69;20159;-74
2022/01/14 02:48:24;;;;;;;11.38;5.78;;;;;;;-2.99;63.14;94506.28;2074878;69;20151;-75
2022/01/14 02:50:59;;;;;;;12.20;5.53;;;;;;;-3.01;63.83;94500.50;2075032;69;20654;-69
2022/01/14 02:53:43;;;;;;;11.82;5.70;;;;;;;-3.16;65.38;94497.00;2075453;69;20209;-70
2022/01/14 02:56:25;;;;;;;13.32;5.47;;;;;;;-3.13;64.70;94490.53;2075217;69;20160;-70
2022/01/14 02:58:51;;;;;;;9.65;4.60;;;;;;;-3.00;64.21;94484.72;2075500;69;20152;-71
2022/01/14 03:01:24;;;;;;;12.10;4.85;;;;;;;-2.91;64.66;94481.84;2075299;69;20217;-71
2022/01/14 03:03:53;;;;;;;;;;;;;;;-2.90;63.89;94478.59;2075345;69;20262;-71
2022/01/14 03:06:19;;;;;;;9.75;4.45;;;;;;;-3.11;65.79;94485.31;2075084;69;20475;-71
2022/01/14 03:08:45;;;;;;;7.85;4.07;;;;;;;-3.12;67.26;94481.03;2075176;69;20151;-73
2022/01/14 03:11:23;;;;;;;9.60;4.43;;;;;;;-3.03;64.62;94478.16;2075161;69;20249;-72
2022/01/14 03:13:48;;;;;;;9.20;4.57;;;;;;;-2.99;65.64;94475.19;2075198;69;20617;-70
2022/01/14 03:16:19;;;;;;;6.38;3.63;;;;;;;-3.02;65.36;94471.41;2075296;69;20235;-71
2022/01/14 03:18:49;;;;;;;8.45;4.00;;;;;;;-3.05;65.22;94466.84;2075257;69;20191;-70
2022/01/14 03:21:17;;;;;;;8.88;4.22;;;;;;;-2.93;65.36;94462.25;2075035;69;20178;-69
2022/01/14 03:23:46;;;;;;;7.32;4.00;;;;;;;-3.08;65.37;94463.06;2075268;69;20151;-71
2022/01/14 03:26:17;;;;;;;6.90;3.50;;;;;;;-3.00;65.13;94465.41;2075092;69;20160;-69
2022/01/14 03:28:44;;;;;;;8.45;3.85;;;;;;;-3.00;65.19;94462.66;2075223;69;20175;-69
2022/01/14 03:31:10;;;;;;;7.55;3.63;;;;;;;-3.04;65.50;94456.59;2075138;69;20132;-71
2022/01/14 03:33:37;;;;;;;6.80;3.97;;;;;;;-3.11;66.34;94460.53;2075126;69;20152;-72
2022/01/14 03:36:04;;;;;;;8.13;3.92;;;;;;;-3.22;65.99;94461.09;2075072;69;20151;-69
2022/01/14 03:38:30;;;;;;;7.28;3.88;;;;;;;-3.17;65.85;94456.91;2075071;69;20156;-70
2022/01/14 03:40:55;;;;;;;8.30;3.45;;;;;;;-3.23;64.95;94458.84;2075084;69;20158;-70
2022/01/14 03:43:21;;;;;;;7.28;3.80;;;;;;;-3.10;65.72;94462.78;2075159;69;20225;-69
2022/01/14 03:45:49;;;;;;;4.88;3.17;;;;;;;-2.93;65.63;94460.28;2075161;69;20144;-69
2022/01/14 03:48:15;;;;;;;6.50;3.22;;;;;;;-3.03;65.86;94466.38;2075162;69;20148;-69
2022/01/14 03:50:41;;;;;;;5.03;2.45;;;;;;;-2.95;65.38;94475.75;2074942;69;20174;-69
2022/01/14 03:53:07;;;;;;;5.82;3.08;;;;;;;-3.09;65.81;94471.81;2075112;69;20132;-69
2022/01/14 03:55:33;;;;;;;6.63;3.20;;;;;;;-3.17;66.21;94470.69;2075047;69;20518;-70
2022/01/14 03:57:58;;;;;;;6.57;3.10;;;;;;;-3.12;65.92;94467.25;2075179;69;20143;-70
2022/01/14 04:00:24;;;;;;;5.63;2.90;;;;;;;-3.12;65.51;94464.50;2071877;69;20178;-69
2022/01/14 04:02:51;;;;;;;6.93;3.38;;;;;;;-3.14;65.49;94464.22;2075201;69;20164;-69
2022/01/14 04:05:17;;;;;;;6.05;3.47;;;;;;;-3.21;65.43;94467.38;2074875;69;20175;-70
2022/01/14 04:07:43;;;;;;;8.30;3.90;;;;;;;-3.16;64.96;94461.94;2075065;69;20598;-72
2022/01/14 04:10:11;;;;;;;8.98;4.38;;;;;;;-3.10;65.00;94456.53;2075086;69;20147;-71
2022/01/14 04:17:58;;;;;;;7.43;3.50;;;;;;;-3.25;64.88;94458.53;2075087;69;20136;-71
2022/01/14 04:20:24;;;;;;;6.97;3.60;;;;;;;-3.21;65.56;94454.34;2074900;69;20235;-69
2022/01/14 04:22:51;;;;;;;6.15;3.72;;;;;;;-3.16;66.10;94455.66;2075017;69;20152;-72
2022/01/14 04:25:17;;;;;;;6.47;3.80;;;;;;;-3.10;65.69;94457.28;2074999;69;20163;-69
2022/01/14 04:27:43;;;;;;;7.40;3.85;;;;;;;-3.10;65.66;94446.25;2074995;69;20150;-69
2022/01/14 04:30:11;;;;;;;7.10;3.80;;;;;;;-3.15;65.64;94448.94;2075034;69;20171;-69
2022/01/14 04:32:36;;;;;;;6.80;3.90;;;;;;;-3.17;65.76;94451.41;2074978;69;20314;-69
2022/01/14 04:35:02;;;;;;;6.95;4.15;;;;;;;-3.11;65.45;94446.75;2075058;69;20160;-73
2022/01/14 04:37:28;;;;;;;6.25;4.05;;;;;;;-3.09;65.52;94436.75;2074977;69;20231;-69
2022/01/14 04:39:53;;;;;;;8.55;4.68;;;;;;;-3.08;65.70;94443.00;2074994;69;20223;-68
2022/01/14 04:42:19;;;;;;;8.15;4.15;;;;;;;-3.13;65.22;94443.69;2075087;69;20202;-76
2022/01/14 04:44:45;;;;;;;11.38;6.05;;;;;;;-3.27;65.79;94441.75;2074889;69;20176;-74
2022/01/14 04:47:29;;;;;;;13.10;5.80;;;;;;;-3.27;66.15;94450.75;2074939;69;20499;-73
2022/01/14 04:49:54;;;;;;;10.70;5.60;;;;;;;-3.26;65.02;94440.50;2074962;69;20587;-75
2022/01/14 04:52:20;;;;;;;9.82;3.85;;;;;;;-3.11;65.63;94430.97;2074921;69;20131;-72
2022/01/14 04:54:46;;;;;;;10.13;5.28;;;;;;;-3.11;65.22;94433.72;2074942;69;20239;-76
2022/01/14 04:57:12;;;;;;;11.77;5.35;;;;;;;-3.06;65.18;94429.53;2074932;69;20609;-76
2022/01/14 04:59:37;;;;;;;19.85;10.65;;;;;;;-3.16;66.13;94428.91;2074994;69;20168;-72
2022/01/14 05:02:03;;;;;;;14.88;7.93;;;;;;;-3.21;66.80;94432.31;2071979;69;20227;-75
2022/01/14 05:04:29;;;;;;;14.60;7.40;;;;;;;-3.19;66.81;94424.34;2075470;69;20231;-72
2022/01/14 05:07:01;;;;;;;11.82;6.88;;;;;;;-3.26;67.08;94424.72;2075416;69;20175;-71
2022/01/14 05:09:37;;;;;;;13.93;7.20;;;;;;;-3.27;66.25;94425.22;2075507;69;20167;-70
2022/01/14 05:12:07;;;;;;;22.60;11.57;;;;;;;-3.20;65.41;94422.06;2075593;69;20612;-73
2022/01/14 05:14:33;;;;;;;19.70;10.93;;;;;;;-3.27;65.95;94417.69;2075629;69;20144;-71
2022/01/14 05:16:59;;;;;;;22.05;11.18;;;;;;;-3.23;67.43;94415.50;2075603;69;20155;-73
2022/01/14 05:19:25;;;;;;;29.63;16.40;;;;;;;-3.22;67.08;94410.75;2075490;69;20136;-70
2022/01/14 05:21:50;;;;;;;61.33;29.85;;;;;;;-3.17;65.84;94419.09;2075426;69;20167;-73
2022/01/14 05:24:16;;;;;;;51.38;25.85;;;;;;;-3.19;66.24;94413.31;2075394;69;20150;-74
2022/01/14 05:26:42;;;;;;;39.17;19.30;;;;;;;-3.11;65.71;94410.91;2075445;69;20227;-72
2022/01/14 05:29:07;;;;;;;37.17;19.30;;;;;;;-3.12;65.83;94409.38;2075530;69;20135;-73
2022/01/14 05:31:51;;;;;;;49.40;24.23;;;;;;;-3.23;67.60;94409.25;2075560;69;20167;-72
2022/01/14 05:34:18;;;;;;;43.75;21.60;;;;;;;-3.26;66.53;94408.19;2075417;69;20226;-75
2022/01/14 05:36:44;;;;;;;40.15;21.30;;;;;;;-3.21;66.51;94415.03;2075275;69;20235;-70
2022/01/14 05:39:11;;;;;;;38.67;19.58;;;;;;;-3.22;66.35;94410.75;2075512;69;20164;-75
2022/01/14 05:41:37;;;;;;;43.90;21.33;;;;;;;-3.23;65.96;94404.50;2075401;69;20144;-73
2022/01/14 05:44:04;;;;;;;46.97;21.60;;;;;;;-3.31;66.58;94408.88;2075417;69;20164;-69
2022/01/14 05:46:30;;;;;;;43.63;19.85;;;;;;;-3.25;66.64;94406.19;2075421;69;20207;-69
2022/01/14 05:48:55;;;;;;;37.55;17.67;;;;;;;-3.11;66.31;94408.91;2075415;69;20590;-69
2022/01/14 05:51:21;;;;;;;42.80;17.48;;;;;;;-3.12;66.74;94401.88;2075262;69;20136;-69
2022/01/14 05:53:47;;;;;;;35.92;16.67;;;;;;;-3.20;66.75;94403.53;2072132;69;20135;-68
2022/01/14 05:56:13;;;;;;;35.55;16.63;;;;;;;-3.22;66.61;94402.50;2075475;69;20154;-69
2022/01/14 05:58:38;;;;;;;39.35;17.60;;;;;;;-3.29;66.62;94398.16;2075543;69;20584;-71
2022/01/14 06:01:04;;;;;;;54.78;19.75;;;;;;;-3.40;66.25;94404.25;2075464;69;20148;-72
2022/01/14 06:03:29;;;;;;;81.07;25.35;;;;;;;-3.35;65.91;94400.81;2075361;69;20160;-73
2022/01/14 06:05:55;;;;;;;56.35;21.33;;;;;;;-3.26;66.00;94399.94;2075137;69;20152;-72
2022/01/14 06:08:20;;;;;;;41.58;17.58;;;;;;;-3.28;66.46;94396.91;2075357;69;20151;-76
2022/01/14 06:10:46;;;;;;;57.75;21.98;;;;;;;-3.36;66.46;94399.28;2075466;69;20617;-74
2022/01/14 06:13:11;;;;;;;51.03;19.52;;;;;;;-3.39;66.30;94402.25;2072005;69;20525;-72
2022/01/14 06:15:37;;;;;;;48.80;19.58;;;;;;;-3.49;67.31;94398.84;2075319;69;20156;-70
2022/01/14 06:18:03;;;;;;;46.28;19.55;;;;;;;-3.51;66.51;94406.09;2075340;69;20144;-69
2022/01/14 06:20:28;;;;;;;65.28;28.52;;;;;;;-3.50;67.79;94391.84;2075186;69;20143;-69
2022/01/14 06:22:54;;;;;;;59.83;27.50;;;;;;;-3.37;66.45;94400.53;2075283;69;20139;-69
2022/01/14 06:25:20;;;;;;;48.55;22.90;;;;;;;-3.34;67.08;94399.59;2075248;69;20240;-69
2022/01/14 06:27:46;;;;;;;67.47;30.38;;;;;;;-3.34;66.51;94388.56;2075302;69;20151;-69
2022/01/14 06:30:12;;;;;;;72.85;29.20;;;;;;;-3.36;66.82;94396.53;2075275;69;20176;-75
2022/01/14 06:32:42;;;;;;;69.18;29.05;;;;;;;-3.29;66.99;94397.41;2075287;69;20582;-73
2022/01/14 06:35:10;;;;;;;74.05;29.10;;;;;;;-3.29;66.42;94397.41;2075138;69;20159;-76
2022/01/14 06:37:35;;;;;;;64.90;28.08;;;;;;;-3.21;65.85;94393.72;2075234;69;20229;-75
2022/01/14 06:40:01;;;;;;;56.22;25.65;;;;;;;-3.23;66.37;94395.47;2075389;69;20231;-75
2022/01/14 06:42:27;;;;;;;53.15;24.02;;;;;;;-3.26;67.27;94390.91;2075260;69;20140;-73
2022/01/14 06:44:52;;;;;;;59.08;27.90;;;;;;;-3.32;66.78;94390.84;2075240;69;20136;-72
2022/01/14 06:47:18;;;;;;;175.73;63.42;;;;;;;-3.32;67.17;94382.56;2075246;69;20142;-75
2022/01/14 06:49:43;;;;;;;149.48;58.72;;;;;;;-3.27;67.02;94390.16;2075151;69;20518;-70
2022/01/14 06:52:09;;;;;;;132.38;55.05;;;;;;;-3.22;66.67;94378.44;2075262;69;20196;-72
2022/01/14 06:54:35;;;;;;;73.95;36.05;;;;;;;-3.15;65.83;94383.56;2075363;69;20151;-71
2022/01/14 06:57:00;;;;;;;146.00;55.83;;;;;;;-3.19;66.90;94388.53;2075379;69;20671;-72
2022/01/14 06:59:26;;;;;;;142.98;53.08;;;;;;;-3.42;67.71;94384.69;2075351;69;20182;-70
2022/01/14 07:01:53;;;;;;;117.68;46.20;;;;;;;-3.35;67.41;94378.03;2075235;69;20128;-73
2022/01/14 07:04:18;;;;;;;294.67;94.50;;;;;;;-3.36;67.52;94368.25;2075080;69;20205;-73
2022/01/14 07:06:44;;;;;;;207.63;71.93;;;;;;;-3.33;67.42;94376.31;2075156;69;20144;-74
2022/01/14 07:09:10;;;;;;;193.50;74.32;;;;;;;-3.28;67.41;94380.38;2075228;69;20200;-75
2022/01/14 07:11:37;;;;;;;180.88;70.15;;;;;;;-3.27;67.65;94373.63;2075352;69;20156;-72
2022/01/14 07:14:04;;;;;;;119.30;48.50;;;;;;;-3.19;67.09;94376.75;2075233;69;20158;-75
2022/01/14 07:16:30;;;;;;;104.68;42.00;;;;;;;-3.12;67.26;94379.06;2071919;69;20179;-74
2022/01/14 07:18:56;;;;;;;81.68;35.20;;;;;;;-3.08;66.99;94379.63;2072163;69;20148;-70
2022/01/14 07:21:21;;;;;;;115.05;44.40;;;;;;;-3.25;67.72;94379.44;2075098;69;20663;-71
2022/01/14 07:23:47;;;;;;;109.80;46.30;;;;;;;-3.22;68.00;94383.19;2071844;69;20227;-71
2022/01/14 07:26:13;;;;;;;107.13;43.95;;;;;;;-3.07;67.15;94384.69;2075300;69;20152;-71
2022/01/14 07:28:40;;;;;;;73.97;33.08;;;;;;;-3.08;67.96;94385.16;2075202;69;20242;-70
2022/01/14 07:31:05;;;;;;;42.90;19.60;;;;;;;-2.97;66.92;94384.53;2075307;69;20219;-70
2022/01/14 07:33:31;;;;;;;72.05;32.90;;;;;;;-2.99;66.20;94373.22;2075290;69;20583;-73
2022/01/14 07:35:57;;;;;;;112.07;47.92;;;;;;;-3.10;67.35;94382.88;2075123;69;20148;-78
2022/01/14 07:38:22;;;;;;;108.45;48.40;;;;;;;-3.22;68.61;94375.69;2075347;69;20143;-73
2022/01/14 07:40:48;;;;;;;93.88;44.30;;;;;;;-3.15;68.33;94380.06;2071757;69;20140;-73
2022/01/14 07:43:14;;;;;;;82.68;40.03;;;;;;;-3.00;67.65;94378.00;2075175;69;20233;-73
2022/01/14 07:45:39;;;;;;;68.15;33.42;;;;;;;-2.90;67.95;94375.84;2075217;69;20661;-75
2022/01/14 07:48:05;;;;;;;67.43;33.00;;;;;;;-2.79;66.82;94375.22;2075156;69;20231;-72
2022/01/14 07:50:30;;;;;;;62.80;31.73;;;;;;;-2.77;66.47;94378.25;2075022;69;20152;-71
2022/01/14 07:52:56;;;;;;;54.15;28.42;;;;;;;-2.70;67.18;94378.59;2075336;69;20648;-70
2022/01/14 07:55:22;;;;;;;50.97;24.77;;;;;;;-2.48;67.54;94378.06;2075069;69;20140;-71
2022/01/14 07:57:47;;;;;;;48.45;21.50;;;;;;;-2.46;65.56;94375.59;2075254;69;20160;-70
2022/01/14 08:00:13;;;;;;;38.25;19.63;;;;;;;-2.56;67.69;94374.25;2075214;69;20128;-70
2022/01/14 08:02:40;;;;;;;39.65;20.38;;;;;;;-2.67;67.08;94376.88;2075174;69;20156;-71
2022/01/14 08:05:07;;;;;;;46.65;23.75;;;;;;;-2.53;68.75;94367.75;2074899;69;20244;-74
2022/01/14 08:07:34;;;;;;;41.30;20.95;;;;;;;-2.36;67.67;94370.69;2075207;69;20136;-70
2022/01/14 08:10:00;;;;;;;35.22;17.95;;;;;;;-2.30;66.49;94361.22;2075089;69;20168;-70
2022/01/14 08:12:25;;;;;;;32.47;15.07;;;;;;;-2.22;66.24;94352.50;2075090;69;20213;-76
2022/01/14 08:14:51;;;;;;;22.50;11.93;;;;;;;-2.20;66.72;94348.03;2075040;69;20151;-72
2022/01/14 08:17:19;;;;;;;21.50;8.60;;;;;;;-2.15;65.64;94346.56;2075105;69;20139;-72
2022/01/14 08:19:45;;;;;;;25.95;12.48;;;;;;;-2.19;67.48;94352.28;2074957;69;20128;-74
2022/01/14 08:22:11;;;;;;;38.38;20.08;;;;;;;-2.25;68.36;94348.72;2075042;69;20526;-74
2022/01/14 08:24:37;;;;;;;34.58;17.88;;;;;;;-2.22;66.59;94347.75;2075110;69;20191;-74
2022/01/14 08:27:06;;;;;;;34.65;17.10;;;;;;;-2.20;67.74;94345.28;2075050;69;20148;-72
2022/01/14 08:29:33;;;;;;;30.88;15.45;;;;;;;-2.14;66.63;94348.81;2075078;69;20156;-74
2022/01/14 08:31:58;;;;;;;34.63;16.85;;;;;;;-2.15;67.13;94355.59;2075051;69;20140;-68
2022/01/14 08:34:25;;;;;;;39.90;19.67;;;;;;;-2.25;67.23;94347.97;2075165;69;20144;-68
2022/01/14 08:36:51;;;;;;;38.50;19.63;;;;;;;-2.21;67.84;94351.25;2074835;69;20232;-71
2022/01/14 08:39:18;;;;;;;36.53;19.13;;;;;;;-2.23;67.63;94337.19;2074981;69;20139;-72
2022/01/14 08:41:44;;;;;;;43.00;22.50;;;;;;;-2.40;67.52;94339.78;2075053;69;20142;-69
2022/01/14 08:44:09;;;;;;;48.92;22.65;;;;;;;-2.18;67.76;94342.00;2075020;69;20155;-74
2022/01/14 08:46:35;;;;;;;41.20;21.67;;;;;;;-2.00;65.91;94341.66;2075073;69;20235;-72
2022/01/14 08:49:01;;;;;;;47.10;23.58;;;;;;;-1.69;66.69;94340.91;2075006;69;20239;-74
2022/01/14 08:51:28;;;;;;;52.38;27.25;;;;;;;-1.40;66.82;94337.06;2074858;69;20227;-70
2022/01/14 08:53:54;;;;;;;49.53;25.88;;;;;;;-1.12;67.02;94339.22;2074959;69;20155;-69
2022/01/14 08:56:20;;;;;;;53.22;26.35;;;;;;;-0.78;69.02;94334.59;2074943;69;20198;-69
2022/01/14 08:58:46;;;;;;;58.35;31.83;;;;;;;-0.53;68.81;94335.69;2074956;69;20601;-70
2022/01/14 09:01:11;;;;;;;58.60;30.00;;;;;;;-0.20;69.25;94335.00;2074934;69;20201;-70
2022/01/14 09:03:37;;;;;;;63.47;28.80;;;;;;;0.08;68.89;94337.03;2074922;69;20152;-70
2022/01/14 09:06:03;;;;;;;55.40;27.95;;;;;;;0.19;66.71;94335.03;2074851;69;20356;-70
2022/01/14 09:08:28;;;;;;;51.90;28.20;;;;;;;0.54;66.56;94333.72;2075063;69;20509;-76
2022/01/14 09:10:54;;;;;;;52.00;26.58;;;;;;;0.83;65.93;94334.44;2075054;69;20209;-77
2022/01/14 09:13:19;;;;;;;55.10;29.10;;;;;;;1.18;65.23;94342.91;2074939;69;20178;-75
2022/01/14 09:15:46;;;;;;;56.83;29.13;;;;;;;1.34;65.42;94340.59;2075018;69;20139;-75
2022/01/14 09:18:12;;;;;;;47.67;25.55;;;;;;;1.64;64.49;94344.22;2074921;69;20151;-74
2022/01/14 09:20:38;;;;;;;46.78;23.50;;;;;;;1.96;64.18;94338.22;2074789;69;20136;-75
2022/01/14 09:23:04;;;;;;;38.50;19.63;;;;;;;1.98;62.52;94333.66;2071535;69;20140;-76
2022/01/14 09:25:30;;;;;;;37.03;19.40;;;;;;;2.23;63.62;94331.69;2074903;69;20147;-69
2022/01/14 09:27:56;;;;;;;36.83;20.00;;;;;;;2.44;62.87;94329.28;2075074;69;20236;-70
2022/01/14 09:30:23;;;;;;;34.67;16.75;;;;;;;2.73;62.52;94327.00;2074768;69;20151;-69
2022/01/14 09:32:49;;;;;;;39.20;17.10;;;;;;;3.00;61.67;94325.19;2074896;69;20179;-69
2022/01/14 09:35:16;;;;;;;38.13;16.10;;;;;;;3.07;60.26;94321.84;2074776;69;20156;-69
2022/01/14 09:37:45;;;;;;;36.42;17.38;;;;;;;3.21;59.56;94320.66;2074939;69;20227;-70
2022/01/14 09:40:14;;;;;;;33.47;15.95;;;;;;;3.43;59.38;94321.66;2074853;69;20144;-70
2022/01/14 09:42:40;;;;;;;37.25;17.73;;;;;;;3.74;59.26;94320.25;2074935;69;20203;-73
2022/01/14 09:45:06;;;;;;;32.78;16.65;;;;;;;3.80;57.99;94321.69;2071427;69;20171;-72
2022/01/14 09:47:31;;;;;;;54.13;32.63;;;;;;;3.45;56.55;94325.44;2075117;69;20131;-73
2022/01/14 09:49:57;;;;;;;20.17;10.20;;;;;;;3.38;56.50;94326.00;2075297;69;20537;-76
2022/01/14 09:52:23;;;;;;;32.72;15.35;;;;;;;3.78;56.75;94326.28;2075613;69;20283;-73
2022/01/14 09:54:50;;;;;;;33.60;17.02;;;;;;;4.21;55.32;94320.56;2075353;69;20563;-74
2022/01/14 09:57:16;;;;;;;40.60;22.60;;;;;;;4.69;56.69;94324.38;2075337;69;20507;-74
2022/01/14 09:59:42;;;;;;;16.15;8.73;;;;;;;5.44;55.27;94330.88;2075346;69;20143;-70
2022/01/14 10:02:08;;;;;;;12.50;6.97;;;;;;;5.37;53.92;94323.91;2075365;69;20597;-71
2022/01/14 10:04:35;;;;;;;20.65;10.95;;;;;;;5.51;53.11;94317.00;2075248;69;20140;-73
2022/01/14 10:07:03;;;;;;;19.38;10.23;;;;;;;5.88;53.24;94320.06;2075227;69;20183;-70
2022/01/14 10:09:39;;;;;;;16.65;9.05;;;;;;;6.20;51.59;94314.28;2075319;69;20176;-69
2022/01/14 10:12:20;;;;;;;15.00;8.50;;;;;;;6.35;49.94;94312.38;2075467;69;20152;-69
2022/01/14 10:15:09;;;;;;;13.77;7.18;;;;;;;6.57;49.62;94302.72;2075382;69;20155;-70
2022/01/14 10:17:37;;;;;;;11.27;6.35;;;;;;;6.71;48.83;94313.84;2075317;69;20152;-72
2022/01/14 10:20:05;;;;;;;9.93;6.00;;;;;;;7.27;48.84;94303.97;2075212;69;20235;-73
2022/01/14 10:22:32;;;;;;;12.20;6.43;;;;;;;8.00;47.40;94301.88;2075302;69;20171;-69
2022/01/14 10:25:02;;;;;;;19.65;11.93;;;;;;;7.75;47.08;94301.63;2075356;69;20219;-70
2022/01/14 10:27:36;;;;;;;19.10;12.30;;;;;;;8.01;46.14;94300.56;2075420;69;20156;-73
2022/01/14 10:30:19;;;;;;;14.32;8.80;;;;;;;7.60;44.60;94293.88;2071943;69;20156;-73
2022/01/14 10:32:59;;;;;;;10.13;5.87;;;;;;;7.84;43.49;94290.63;2075305;69;20143;-73
2022/01/14 10:35:28;;;;;;;7.32;4.40;;;;;;;8.41;43.51;94284.06;2075096;69;20336;-74
2022/01/14 10:37:56;;;;;;;5.78;3.63;;;;;;;8.24;43.67;94278.19;2075274;69;20172;-70
2022/01/14 10:40:24;;;;;;;24.48;15.23;;;;;;;8.86;42.84;94268.56;2075119;69;20140;-77
2022/01/14 10:42:58;;;;;;;10.30;6.57;;;;;;;9.41;42.56;94279.16;2075146;69;20603;-74
2022/01/14 10:45:27;;;;;;;7.10;4.50;;;;;;;9.85;42.19;94285.22;2075187;69;20163;-74
2022/01/14 10:47:57;;;;;;;8.35;5.35;;;;;;;10.25;39.93;94281.69;2075273;69;20132;-75
2022/01/14 10:50:27;;;;;;;7.45;4.57;;;;;;;9.24;40.16;94273.38;2075247;69;20156;-71
2022/01/14 10:52:53;;;;;;;10.70;7.35;;;;;;;9.88;40.32;94270.00;2075085;69;20232;-74
2022/01/14 10:55:34;;;;;;;8.77;5.47;;;;;;;9.87;39.35;94265.69;2071853;69;20330;-78
2022/01/14 10:58:02;;;;;;;10.18;7.50;;;;;;;10.72;38.13;94265.22;2075244;69;20527;-71
2022/01/14 11:00:36;;;;;;;8.93;5.90;;;;;;;11.43;38.02;94257.09;2075069;69;20147;-74
2022/01/14 11:03:02;;;;;;;6.43;4.90;;;;;;;11.68;36.88;94260.59;2075135;69;20147;-70
2022/01/14 11:05:28;;;;;;;7.35;4.72;;;;;;;12.39;35.84;94248.59;2075009;69;20159;-72
2022/01/14 11:07:54;;;;;;;6.53;4.40;;;;;;;12.16;34.61;94243.28;2075054;69;20148;-72
2022/01/14 11:10:22;;;;;;;8.45;5.15;;;;;;;13.42;34.88;94243.78;2075177;69;20491;-72
2022/01/14 11:12:50;;;;;;;6.82;4.40;;;;;;;14.88;34.24;94235.84;2075315;69;20211;-70
2022/01/14 11:15:16;;;;;;;7.10;4.50;;;;;;;15.54;31.71;94234.59;2075228;69;20217;-70
2022/01/14 11:17:46;;;;;;;6.07;4.40;;;;;;;16.63;30.11;94228.84;2075192;69;20220;-71
2022/01/14 11:20:13;;;;;;;6.57;4.85;;;;;;;18.69;28.76;94229.56;2075117;69;20144;-74
2022/01/14 11:25:23;;;;;;;6.85;4.93;;;;;;;19.05;27.30;94225.13;2075186;69;20151;-76
2022/01/14 11:27:57;;;;;;;8.30;6.25;;;;;;;18.71;26.75;94219.03;2071948;69;20148;-75
2022/01/14 11:30:38;;;;;;;14.13;6.38;;;;;;;19.89;25.34;94213.06;2075247;69;20285;-75
2022/01/14 11:33:05;;;;;;;7.57;5.18;;;;;;;20.02;24.77;94203.72;2075127;69;20143;-73
2022/01/14 11:35:32;;;;;;;10.00;7.07;;;;;;;18.20;26.03;94196.22;2075029;69;20542;-71
2022/01/14 11:37:59;;;;;;;13.48;10.88;;;;;;;16.77;26.28;94185.00;2075104;69;20170;-72
2022/01/14 11:40:25;;;;;;;20.38;15.70;;;;;;;13.71;30.46;94189.28;2075169;69;20132;-74
2022/01/14 11:42:58;;;;;;;16.77;10.77;;;;;;;13.50;31.96;94184.22;2075177;69;20154;-70
2022/01/14 11:45:39;;;;;;;11.60;6.47;;;;;;;12.44;34.03;94179.06;2075107;69;20586;-75
2022/01/14 11:48:05;;;;;;;8.35;5.30;;;;;;;12.07;33.66;94173.38;2075075;69;20135;-72
2022/01/14 11:50:30;;;;;;;8.75;4.63;;;;;;;11.28;35.35;94164.97;2074973;69;20220;-72